Time;durP1;ratioP1;P1;durP2;ratioP2;P2;SDS_P1;SDS_P2;PMS_P1;PMS_P2;Temp;Humidity;BMP_temperature;BMP_pressure;BME280_temperature;BME280_humidity;BME280_pressure;Samples;Min_cycle;Max_cycle;Signal;HPM_P1;HPM_P2
2022/11/28 00:01:32;;;;;;;42.20;20.08;;;3.50;99.90;;;;;;5031533;28;20045;-72
2022/11/28 00:04:00;;;;;;;37.47;20.15;;;3.50;99.90;;;;;;5039383;28;20076;-73
2022/11/28 00:06:28;;;;;;;41.38;21.05;;;3.50;99.90;;;;;;5025939;28;20134;-72
2022/11/28 00:08:58;;;;;;;41.55;21.80;;;3.50;99.90;;;;;;5029176;28;20116;-73
2022/11/28 00:11:26;;;;;;;41.45;20.73;;;3.60;99.90;;;;;;5037116;28;20088;-72
2022/11/28 00:13:54;;;;;;;41.88;20.50;;;3.60;99.90;;;;;;5029068;28;20152;-72
2022/11/28 00:16:22;;;;;;;39.95;20.50;;;3.60;99.90;;;;;;5032841;28;20571;-72
2022/11/28 00:18:53;;;;;;;43.08;19.55;;;3.50;99.90;;;;;;5030061;28;20511;-73
2022/11/28 00:21:21;;;;;;;36.10;19.20;;;3.50;99.90;;;;;;5029774;28;20033;-71
2022/11/28 00:23:50;;;;;;;34.50;18.15;;;3.50;99.90;;;;;;5010769;28;20048;-72
2022/11/28 00:26:19;;;;;;;33.13;18.27;;;3.50;99.90;;;;;;5015209;28;20049;-72
2022/11/28 00:28:46;;;;;;;38.63;19.38;;;3.50;99.90;;;;;;5032100;28;20408;-72
2022/11/28 00:31:16;;;;;;;32.60;17.92;;;3.50;99.90;;;;;;5012056;28;20421;-73
2022/11/28 00:33:44;;;;;;;32.72;16.73;;;3.40;99.90;;;;;;5030886;28;20045;-73
2022/11/28 00:36:12;;;;;;;31.77;16.80;;;3.50;99.90;;;;;;5020956;28;20535;-74
2022/11/28 00:38:40;;;;;;;32.85;16.90;;;3.50;99.90;;;;;;5025320;28;20040;-72
2022/11/28 00:41:29;;;;;;;32.88;17.33;;;3.40;99.90;;;;;;5030396;28;20417;-73
2022/11/28 00:43:57;;;;;;;30.50;17.05;;;3.40;99.90;;;;;;5017390;28;21386;-73
2022/11/28 00:46:24;;;;;;;32.65;15.88;;;3.40;99.90;;;;;;5019910;28;20504;-74
2022/11/28 00:48:52;;;;;;;29.67;16.33;;;3.40;99.90;;;;;;5025498;28;20046;-72
2022/11/28 00:51:25;;;;;;;33.80;16.95;;;3.30;99.90;;;;;;5020948;28;20053;-72
2022/11/28 00:53:54;;;;;;;33.13;16.35;;;3.40;99.90;;;;;;5014598;28;20046;-74
2022/11/28 00:56:26;;;;;;;32.33;16.33;;;3.40;99.90;;;;;;5015663;28;20042;-74
2022/11/28 00:58:53;;;;;;;32.50;17.23;;;3.40;99.90;;;;;;5015881;28;20202;-74
2022/11/28 01:01:25;;;;;;;31.75;15.82;;;3.40;99.90;;;;;;5022405;28;20034;-75
2022/11/28 01:03:55;;;;;;;31.13;16.48;;;3.40;99.90;;;;;;5021153;28;20056;-75
2022/11/28 01:06:43;;;;;;;30.50;15.73;;;3.50;99.90;;;;;;5013195;28;20560;-72
2022/11/28 01:09:23;;;;;;;30.33;16.02;;;3.50;99.90;;;;;;5017660;28;20081;-73
2022/11/28 01:11:52;;;;;;;28.83;16.08;;;3.50;99.90;;;;;;5011023;28;20065;-73
2022/11/28 01:14:22;;;;;;;29.80;15.50;;;3.50;99.90;;;;;;5027977;28;20049;-73
2022/11/28 01:16:49;;;;;;;29.30;15.75;;;3.50;99.90;;;;;;5029839;28;20069;-73
2022/11/28 01:19:17;;;;;;;30.13;15.68;;;3.60;99.90;;;;;;5011060;28;20507;-73
2022/11/28 01:21:45;;;;;;;32.08;16.40;;;3.60;99.90;;;;;;4998346;28;20096;-73
2022/11/28 01:24:13;;;;;;;31.35;16.00;;;3.60;99.90;;;;;;5013184;28;20120;-74
2022/11/28 01:26:41;;;;;;;29.05;16.00;;;3.60;99.90;;;;;;5028260;28;20045;-74
2022/11/28 01:29:09;;;;;;;28.40;14.88;;;3.60;99.90;;;;;;5029448;28;20053;-74
2022/11/28 01:31:37;;;;;;;28.85;15.30;;;3.50;99.90;;;;;;5012862;28;20148;-74
2022/11/28 01:34:05;;;;;;;32.95;15.98;;;3.60;99.90;;;;;;5028278;28;20041;-74
2022/11/28 01:36:32;;;;;;;31.23;16.45;;;3.60;99.90;;;;;;5019026;28;20379;-74
2022/11/28 01:39:00;;;;;;;29.65;15.55;;;3.70;99.90;;;;;;5010679;28;20038;-74
2022/11/28 01:41:28;;;;;;;28.23;15.43;;;3.70;99.90;;;;;;5019752;28;20468;-74
2022/11/28 01:44:26;;;;;;;34.25;16.83;;;3.70;99.90;;;;;;5024072;28;20120;-73
2022/11/28 01:46:53;;;;;;;33.20;16.60;;;3.70;99.90;;;;;;5022432;28;20427;-74
2022/11/28 01:49:27;;;;;;;30.75;16.25;;;3.70;99.90;;;;;;5023740;28;20055;-74
2022/11/28 01:52:00;;;;;;;31.75;15.93;;;3.70;99.90;;;;;;5025813;28;20084;-74
2022/11/28 01:54:30;;;;;;;29.38;15.60;;;3.70;99.90;;;;;;5027984;28;20049;-74
2022/11/28 01:57:05;;;;;;;30.23;16.13;;;3.70;99.90;;;;;;5009662;28;20042;-74
2022/11/28 01:59:37;;;;;;;30.15;16.60;;;3.70;99.90;;;;;;5003582;28;20424;-74
2022/11/28 02:02:08;;;;;;;31.00;16.20;;;3.70;99.90;;;;;;5006676;28;20449;-74
2022/11/28 02:04:36;;;;;;;32.85;17.70;;;3.60;99.90;;;;;;5003482;28;20586;-74
2022/11/28 02:07:03;;;;;;;29.27;15.65;;;3.70;99.90;;;;;;5024495;28;20063;-74
2022/11/28 02:09:31;;;;;;;32.40;16.90;;;3.70;99.90;;;;;;5009620;28;20143;-74
2022/11/28 02:12:26;;;;;;;32.90;17.10;;;3.70;99.90;;;;;;5023171;28;20136;-74
2022/11/28 02:15:13;;;;;;;32.72;17.25;;;3.70;99.90;;;;;;5015010;28;20056;-74
2022/11/28 02:18:04;;;;;;;30.48;16.40;;;3.70;99.90;;;;;;5015384;28;20498;-74
2022/11/28 02:20:41;;;;;;;32.65;17.40;;;3.70;99.90;;;;;;5030084;28;20404;-73
2022/11/28 02:23:39;;;;;;;30.55;16.67;;;3.70;99.90;;;;;;5006446;28;20045;-74
2022/11/28 02:26:23;;;;;;;32.30;16.52;;;3.60;99.90;;;;;;5009153;28;20073;-73
2022/11/28 02:29:34;;;;;;;30.50;16.77;;;3.60;99.90;;;;;;5013151;28;20044;-74
2022/11/28 02:32:10;;;;;;;31.10;16.23;;;3.60;99.90;;;;;;5023893;28;20064;-73
2022/11/28 02:34:57;;;;;;;29.02;15.77;;;3.70;99.90;;;;;;5006225;28;20038;-73
2022/11/28 02:37:42;;;;;;;27.45;15.73;;;3.60;99.90;;;;;;5015086;28;20091;-74
2022/11/28 02:40:20;;;;;;;29.30;15.70;;;3.70;99.90;;;;;;5016893;28;20112;-73
2022/11/28 02:43:20;;;;;;;30.77;16.75;;;3.70;99.90;;;;;;5022620;28;20124;-74
2022/11/28 02:46:24;;;;;;;28.20;14.40;;;3.70;99.90;;;;;;5010404;28;20361;-74
2022/11/28 02:48:56;;;;;;;29.27;16.40;;;3.70;99.90;;;;;;5029461;28;20041;-73
2022/11/28 02:51:34;;;;;;;29.60;16.02;;;3.70;99.90;;;;;;5008332;28;20056;-73
2022/11/28 02:54:04;;;;;;;29.48;15.68;;;3.80;99.90;;;;;;5026530;28;20492;-74
2022/11/28 02:56:31;;;;;;;29.52;16.40;;;3.80;99.90;;;;;;5011232;28;20045;-74
2022/11/28 02:58:58;;;;;;;28.85;15.90;;;3.80;99.90;;;;;;5024603;28;20244;-74
2022/11/28 03:01:33;;;;;;;31.95;16.48;;;3.80;99.90;;;;;;5028182;28;20469;-73
2022/11/28 03:04:16;;;;;;;29.65;15.90;;;3.90;99.90;;;;;;5022863;28;20045;-74
2022/11/28 03:07:04;;;;;;;31.33;16.23;;;3.90;99.90;;;;;;5013860;28;20065;-74
2022/11/28 03:10:13;;;;;;;26.95;14.68;;;3.80;99.90;;;;;;5008635;28;20046;-74
2022/11/28 03:13:01;;;;;;;28.25;15.77;;;3.70;99.90;;;;;;5022295;28;20534;-73
2022/11/28 03:15:57;;;;;;;27.15;15.25;;;3.70;99.90;;;;;;5004036;28;20053;-74
2022/11/28 03:18:39;;;;;;;33.95;16.38;;;3.70;99.90;;;;;;5012723;28;20038;-74
2022/11/28 03:21:34;;;;;;;28.15;15.43;;;3.70;99.90;;;;;;4995053;28;20077;-73
2022/11/28 03:24:35;;;;;;;30.80;16.25;;;3.70;99.90;;;;;;5008690;28;20123;-72
2022/11/28 03:27:14;;;;;;;31.13;15.70;;;3.70;99.90;;;;;;5028060;28;20543;-74
2022/11/28 03:29:54;;;;;;;28.08;15.02;;;3.70;99.90;;;;;;5009624;28;20084;-74
2022/11/28 03:32:35;;;;;;;29.30;15.88;;;3.70;99.90;;;;;;5015676;28;20462;-73
2022/11/28 03:35:11;;;;;;;31.25;16.15;;;3.70;99.90;;;;;;4993027;28;20050;-73
2022/11/28 03:37:49;;;;;;;27.42;15.88;;;3.70;99.90;;;;;;5003423;28;20466;-74
2022/11/28 03:40:22;;;;;;;32.58;15.13;;;3.70;99.90;;;;;;5023327;28;20037;-74
2022/11/28 03:43:01;;;;;;;30.30;16.52;;;3.70;99.90;;;;;;5028628;28;20049;-74
2022/11/28 03:45:36;;;;;;;32.85;16.42;;;3.70;99.90;;;;;;5021152;28;20059;-75
2022/11/28 03:48:18;;;;;;;30.92;17.33;;;3.70;99.90;;;;;;5026403;28;20562;-74
2022/11/28 03:51:17;;;;;;;32.83;18.02;;;3.70;99.90;;;;;;5012773;28;20104;-75
2022/11/28 03:54:00;;;;;;;31.88;17.65;;;3.70;99.90;;;;;;5020394;28;20041;-75
2022/11/28 03:56:43;;;;;;;31.23;16.75;;;3.70;99.90;;;;;;5005624;28;20144;-74
2022/11/28 03:59:19;;;;;;;31.88;16.83;;;3.70;99.90;;;;;;5025879;28;20133;-74
2022/11/28 04:02:01;;;;;;;31.30;15.93;;;3.80;99.90;;;;;;4994093;28;20145;-73
2022/11/28 04:04:46;;;;;;;30.23;15.98;;;3.70;99.90;;;;;;5030358;28;20507;-74
2022/11/28 04:07:41;;;;;;;28.85;16.67;;;3.80;99.90;;;;;;5019558;28;20064;-74
2022/11/28 04:10:40;;;;;;;28.90;15.85;;;3.80;99.90;;;;;;5032149;28;20060;-73
2022/11/28 04:13:20;;;;;;;28.55;15.85;;;3.80;99.90;;;;;;5016147;28;20049;-74
2022/11/28 04:16:09;;;;;;;28.30;14.95;;;3.80;99.90;;;;;;5031353;28;20128;-75
2022/11/28 04:18:45;;;;;;;33.70;15.25;;;3.80;99.90;;;;;;5026330;28;20407;-74
2022/11/28 04:21:53;;;;;;;32.08;15.30;;;3.80;99.90;;;;;;5025957;28;20103;-74
2022/11/28 04:24:28;;;;;;;31.60;16.73;;;3.80;99.90;;;;;;5037333;28;20054;-74
2022/11/28 04:27:04;;;;;;;29.17;16.58;;;3.80;99.90;;;;;;5019464;28;20038;-74
2022/11/28 04:29:37;;;;;;;32.67;16.20;;;3.80;99.90;;;;;;5000854;28;20530;-74
2022/11/28 04:32:06;;;;;;;30.83;16.08;;;3.80;99.90;;;;;;5029944;28;20156;-74
2022/11/28 04:34:37;;;;;;;29.13;16.25;;;3.80;99.90;;;;;;5026389;28;20528;-75
2022/11/28 04:37:06;;;;;;;27.75;16.77;;;3.80;99.90;;;;;;5025316;28;20427;-75
2022/11/28 04:39:39;;;;;;;25.90;14.82;;;3.80;99.90;;;;;;5027707;28;20231;-73
2022/11/28 04:42:11;;;;;;;29.92;16.95;;;3.80;99.90;;;;;;5008311;28;20069;-73
2022/11/28 04:45:05;;;;;;;30.25;16.02;;;3.90;99.90;;;;;;5021466;28;20046;-73
2022/11/28 04:47:32;;;;;;;30.92;16.27;;;3.90;99.90;;;;;;5022365;28;20733;-73
2022/11/28 04:49:59;;;;;;;31.10;16.13;;;3.90;99.90;;;;;;5031475;28;20037;-73
2022/11/28 04:52:48;;;;;;;33.25;17.48;;;3.80;99.90;;;;;;5029673;28;20555;-73
2022/11/28 04:55:24;;;;;;;29.13;16.08;;;3.80;99.90;;;;;;5013265;28;20547;-73
2022/11/28 04:57:58;;;;;;;30.00;17.05;;;3.80;99.90;;;;;;5015281;28;20559;-73
2022/11/28 05:00:26;;;;;;;31.80;17.40;;;3.70;99.90;;;;;;5020201;28;20049;-73
2022/11/28 05:02:54;;;;;;;32.88;17.02;;;3.70;99.90;;;;;;5012471;28;20056;-72
2022/11/28 05:05:24;;;;;;;32.72;17.27;;;3.70;99.90;;;;;;5018717;28;20044;-73
2022/11/28 05:07:52;;;;;;;31.13;17.52;;;3.70;99.90;;;;;;5029023;28;20408;-72
2022/11/28 05:10:19;;;;;;;31.58;16.90;;;3.70;99.90;;;;;;5020518;28;20075;-73
2022/11/28 05:12:47;;;;;;;34.63;18.10;;;3.70;99.90;;;;;;5013663;28;20080;-73
2022/11/28 05:15:17;;;;;;;32.40;16.85;;;3.70;99.90;;;;;;5019292;28;20057;-72
2022/11/28 05:17:45;;;;;;;32.70;16.75;;;3.70;99.90;;;;;;5028297;28;20133;-75
2022/11/28 05:20:13;;;;;;;38.03;18.77;;;3.70;99.90;;;;;;5014984;28;20133;-72
2022/11/28 05:22:40;;;;;;;32.35;17.80;;;3.70;99.90;;;;;;5025321;28;20191;-74
2022/11/28 05:25:08;;;;;;;31.20;16.33;;;3.80;99.90;;;;;;5031179;28;20033;-74
2022/11/28 05:27:37;;;;;;;34.22;17.40;;;3.80;99.90;;;;;;5025366;28;20040;-74
2022/11/28 05:30:06;;;;;;;32.08;17.92;;;3.80;99.90;;;;;;5002355;28;20149;-74
2022/11/28 05:32:35;;;;;;;33.75;17.92;;;3.80;99.90;;;;;;5019897;28;20049;-75
2022/11/28 05:35:03;;;;;;;35.58;18.55;;;3.90;99.90;;;;;;5003749;28;20045;-73
2022/11/28 05:37:31;;;;;;;31.38;17.90;;;3.90;99.90;;;;;;5030226;28;20393;-73
2022/11/28 05:39:58;;;;;;;34.33;17.45;;;3.90;99.90;;;;;;5022779;28;20045;-75
2022/11/28 05:42:27;;;;;;;33.72;17.50;;;3.90;99.90;;;;;;5024309;28;20041;-73
2022/11/28 05:44:55;;;;;;;32.03;17.10;;;3.90;99.90;;;;;;5020018;28;20349;-74
2022/11/28 05:47:24;;;;;;;31.10;18.05;;;3.90;99.90;;;;;;5008261;28;20042;-74
2022/11/28 05:49:51;;;;;;;31.67;17.52;;;3.90;99.90;;;;;;5011579;28;20042;-74
2022/11/28 05:52:18;;;;;;;32.08;17.40;;;3.90;99.90;;;;;;5011604;28;20475;-75
2022/11/28 05:54:46;;;;;;;29.58;16.70;;;4.00;99.90;;;;;;5026692;28;20412;-73
2022/11/28 05:57:13;;;;;;;35.03;17.40;;;4.00;99.90;;;;;;5014865;28;20061;-73
2022/11/28 05:59:40;;;;;;;33.85;18.40;;;4.00;99.90;;;;;;5015092;28;20125;-75
2022/11/28 06:02:08;;;;;;;30.30;17.63;;;4.00;99.90;;;;;;5017394;28;20168;-75
2022/11/28 06:04:36;;;;;;;30.42;16.33;;;4.00;99.90;;;;;;5009574;28;20053;-73
2022/11/28 06:07:04;;;;;;;31.55;17.25;;;3.90;99.90;;;;;;5018112;28;20034;-74
2022/11/28 06:09:31;;;;;;;32.75;17.80;;;3.90;99.90;;;;;;5009402;28;20424;-74
2022/11/28 06:11:58;;;;;;;32.03;16.98;;;3.90;99.90;;;;;;5025792;28;20045;-73
2022/11/28 06:14:26;;;;;;;31.02;17.58;;;3.90;99.90;;;;;;5024695;28;20049;-74
2022/11/28 06:16:53;;;;;;;30.55;17.27;;;3.90;99.90;;;;;;5028602;28;20041;-74
2022/11/28 06:19:20;;;;;;;34.63;17.60;;;3.90;99.90;;;;;;5016972;28;20038;-73
2022/11/28 06:21:51;;;;;;;33.85;17.60;;;3.80;99.90;;;;;;5021278;28;20120;-74
2022/11/28 06:24:18;;;;;;;31.17;17.83;;;3.80;99.90;;;;;;5010123;28;20081;-73
2022/11/28 06:26:46;;;;;;;32.05;17.10;;;3.80;99.90;;;;;;5015201;28;20124;-74
2022/11/28 06:29:13;;;;;;;32.88;17.08;;;3.80;99.90;;;;;;5021413;28;20041;-73
2022/11/28 06:31:40;;;;;;;33.65;17.98;;;3.80;99.90;;;;;;5012617;28;20046;-73
2022/11/28 06:34:11;;;;;;;32.33;18.15;;;3.80;99.90;;;;;;5020621;28;20409;-74
2022/11/28 06:36:39;;;;;;;33.38;17.80;;;3.90;99.90;;;;;;4999824;28;20046;-74
2022/11/28 06:39:06;;;;;;;28.75;16.77;;;3.90;99.90;;;;;;5012604;28;20366;-74
2022/11/28 06:41:33;;;;;;;34.60;17.55;;;4.00;99.90;;;;;;5007998;28;20069;-73
2022/11/28 06:44:02;;;;;;;30.95;17.48;;;4.00;99.90;;;;;;5015134;28;20550;-74
2022/11/28 06:46:29;;;;;;;31.15;16.55;;;4.00;99.90;;;;;;5018170;28;20084;-75
2022/11/28 06:48:56;;;;;;;32.92;17.10;;;4.00;99.90;;;;;;5024414;28;20056;-74
2022/11/28 06:51:24;;;;;;;32.60;16.98;;;4.10;99.90;;;;;;5025621;28;20073;-74
2022/11/28 06:53:52;;;;;;;32.25;16.52;;;4.10;99.90;;;;;;5020543;28;20561;-73
2022/11/28 06:56:20;;;;;;;33.15;17.48;;;4.10;99.90;;;;;;5022678;28;20057;-72
2022/11/28 06:58:54;;;;;;;30.00;16.90;;;4.10;99.90;;;;;;5027070;28;20057;-73
2022/11/28 07:01:24;;;;;;;28.17;15.68;;;4.10;99.90;;;;;;5015754;28;20046;-73
2022/11/28 07:03:53;;;;;;;30.10;16.42;;;4.10;99.90;;;;;;5027035;28;20471;-74
2022/11/28 07:06:22;;;;;;;30.67;16.58;;;4.10;99.90;;;;;;5018390;28;20491;-74
2022/11/28 07:08:53;;;;;;;32.63;17.08;;;4.10;99.90;;;;;;5022528;28;20069;-73
2022/11/28 07:11:30;;;;;;;30.23;16.08;;;4.20;99.90;;;;;;5021136;28;20069;-74
2022/11/28 07:14:00;;;;;;;30.27;16.17;;;4.10;99.90;;;;;;5008456;28;20389;-71
2022/11/28 07:16:30;;;;;;;27.08;15.98;;;4.10;99.90;;;;;;5003148;28;20050;-72
2022/11/28 07:18:58;;;;;;;35.92;18.30;;;4.10;99.90;;;;;;5019923;28;20393;-71
2022/11/28 07:21:26;;;;;;;32.25;16.88;;;4.10;99.90;;;;;;5018676;28;20037;-71
2022/11/28 07:23:53;;;;;;;34.15;17.50;;;4.10;99.90;;;;;;5030322;28;20046;-72
2022/11/28 07:26:21;;;;;;;36.65;17.77;;;4.20;99.90;;;;;;5034167;28;20049;-71
2022/11/28 07:28:50;;;;;;;33.53;17.05;;;4.20;99.90;;;;;;5026218;28;20057;-72
2022/11/28 07:31:20;;;;;;;31.20;17.42;;;4.20;99.90;;;;;;5002386;28;20064;-72
2022/11/28 07:33:49;;;;;;;31.25;16.67;;;4.20;99.90;;;;;;5028014;28;20046;-71
2022/11/28 07:36:23;;;;;;;27.02;16.15;;;4.20;99.90;;;;;;5022068;28;20052;-72
2022/11/28 07:38:53;;;;;;;32.17;17.52;;;4.30;99.90;;;;;;5027682;28;20053;-74
2022/11/28 07:41:21;;;;;;;30.00;16.73;;;4.30;99.90;;;;;;5013203;28;20526;-72
2022/11/28 07:43:58;;;;;;;31.08;15.75;;;4.30;99.90;;;;;;5026191;28;20069;-73
2022/11/28 07:46:27;;;;;;;31.80;16.52;;;4.30;99.90;;;;;;5012564;28;20127;-72
2022/11/28 07:48:55;;;;;;;27.17;16.02;;;4.30;99.90;;;;;;5013736;28;20048;-74
2022/11/28 07:51:26;;;;;;;30.60;15.50;;;4.30;99.90;;;;;;5000331;28;20381;-72
2022/11/28 07:53:54;;;;;;;29.70;16.48;;;4.40;99.90;;;;;;5017370;28;20073;-72
2022/11/28 07:56:24;;;;;;;32.42;16.02;;;4.40;99.90;;;;;;5000033;28;20121;-73
2022/11/28 07:58:51;;;;;;;31.73;16.83;;;4.40;99.90;;;;;;5018779;28;20050;-72
2022/11/28 08:01:24;;;;;;;29.48;16.55;;;4.50;99.90;;;;;;5020500;28;20053;-71
2022/11/28 08:03:52;;;;;;;32.00;18.67;;;4.60;99.90;;;;;;5024735;28;20046;-72
2022/11/28 08:06:22;;;;;;;36.50;16.50;;;4.60;99.90;;;;;;4996992;28;20053;-73
2022/11/28 08:08:51;;;;;;;28.17;15.48;;;4.60;99.90;;;;;;5018210;28;20042;-75
2022/11/28 08:11:20;;;;;;;30.08;15.90;;;4.60;99.90;;;;;;5026682;28;20037;-72
2022/11/28 08:13:48;;;;;;;27.85;16.02;;;4.50;99.90;;;;;;5008344;28;20041;-72
2022/11/28 08:16:21;;;;;;;33.85;18.63;;;4.50;99.90;;;;;;4996088;28;20041;-72
2022/11/28 08:18:49;;;;;;;27.23;15.88;;;4.50;99.90;;;;;;5033732;28;20057;-74
2022/11/28 08:21:19;;;;;;;26.83;15.68;;;4.60;99.90;;;;;;5030870;28;20037;-71
2022/11/28 08:23:46;;;;;;;30.83;16.73;;;4.60;99.90;;;;;;5029356;28;20396;-72
2022/11/28 08:26:15;;;;;;;27.85;15.93;;;4.60;99.90;;;;;;5030922;28;20133;-74
2022/11/28 08:28:43;;;;;;;26.65;15.68;;;4.60;99.90;;;;;;5024656;28;20125;-73
2022/11/28 08:31:22;;;;;;;26.38;15.30;;;4.60;99.90;;;;;;5019467;28;20046;-73
2022/11/28 08:33:51;;;;;;;27.85;15.38;;;4.70;99.90;;;;;;5030194;28;20408;-72
2022/11/28 08:36:20;;;;;;;30.08;17.17;;;4.80;99.90;;;;;;5021030;28;20144;-72
2022/11/28 08:38:48;;;;;;;34.80;18.77;;;4.80;99.90;;;;;;5026378;28;20041;-74
2022/11/28 08:41:35;;;;;;;30.05;17.17;;;4.80;99.90;;;;;;4999730;28;20029;-73
2022/11/28 08:44:03;;;;;;;25.13;14.55;;;4.90;99.90;;;;;;4996270;28;20125;-73
2022/11/28 08:46:30;;;;;;;26.48;15.88;;;4.90;99.90;;;;;;5031478;28;20139;-74
2022/11/28 08:49:00;;;;;;;28.33;15.80;;;4.90;99.90;;;;;;5028839;28;20437;-74
2022/11/28 08:51:31;;;;;;;31.13;15.40;;;4.90;99.90;;;;;;5006530;28;20424;-75
2022/11/28 08:53:58;;;;;;;30.83;16.25;;;5.00;99.90;;;;;;5022074;28;20089;-73
2022/11/28 08:56:26;;;;;;;26.92;15.75;;;5.00;99.90;;;;;;5009693;28;20119;-74
2022/11/28 08:58:54;;;;;;;30.48;17.30;;;5.00;99.90;;;;;;5021269;28;20412;-73
2022/11/28 09:01:24;;;;;;;27.70;14.95;;;5.00;99.90;;;;;;5016147;28;20504;-74
2022/11/28 09:03:53;;;;;;;28.52;15.80;;;5.10;99.90;;;;;;5017396;28;20489;-75
2022/11/28 09:06:22;;;;;;;28.95;16.10;;;5.10;99.90;;;;;;5005875;28;20053;-74
2022/11/28 09:08:50;;;;;;;26.00;15.35;;;5.20;99.90;;;;;;5004364;28;20054;-74
2022/11/28 09:11:20;;;;;;;28.60;16.02;;;5.20;99.90;;;;;;5015571;28;20041;-72
2022/11/28 09:13:47;;;;;;;27.45;15.85;;;5.30;99.90;;;;;;4999573;28;20073;-75
2022/11/28 09:16:16;;;;;;;28.95;16.20;;;5.20;99.90;;;;;;5006964;28;20509;-75
2022/11/28 09:18:43;;;;;;;29.27;16.88;;;5.40;99.90;;;;;;5010806;28;20045;-74
2022/11/28 09:21:13;;;;;;;24.08;15.15;;;5.40;99.90;;;;;;5024613;28;20042;-74
2022/11/28 09:23:42;;;;;;;25.65;15.65;;;5.50;99.90;;;;;;5022579;28;20037;-74
2022/11/28 09:26:15;;;;;;;24.48;15.10;;;5.50;99.90;;;;;;5002756;28;20054;-72
2022/11/28 09:28:42;;;;;;;26.65;16.48;;;5.50;99.90;;;;;;4996053;28;20104;-75
2022/11/28 09:31:11;;;;;;;23.17;14.98;;;5.50;99.90;;;;;;5024789;28;20057;-73
2022/11/28 09:33:39;;;;;;;26.52;15.38;;;5.60;99.90;;;;;;5027851;28;20099;-73
2022/11/28 09:36:09;;;;;;;23.35;14.30;;;5.70;99.90;;;;;;5014339;28;20060;-72
2022/11/28 09:38:36;;;;;;;25.00;14.30;;;5.70;99.90;;;;;;5029052;28;20051;-73
2022/11/28 09:41:30;;;;;;;25.17;14.35;;;5.70;99.90;;;;;;5019173;28;20056;-73
2022/11/28 09:44:25;;;;;;;24.58;14.52;;;5.80;99.90;;;;;;5029777;28;20103;-73
2022/11/28 09:46:57;;;;;;;25.10;14.63;;;5.80;99.90;;;;;;5001940;28;20065;-73
2022/11/28 09:49:33;;;;;;;23.48;13.95;;;5.90;99.90;;;;;;5016987;28;20072;-74
2022/11/28 09:52:28;;;;;;;25.55;15.25;;;5.90;99.90;;;;;;5025646;28;20072;-70
2022/11/28 09:55:14;;;;;;;24.85;15.23;;;5.90;99.90;;;;;;5015854;28;20095;-72
2022/11/28 09:57:47;;;;;;;24.67;13.82;;;5.90;99.90;;;;;;5010851;28;20099;-74
2022/11/28 10:00:21;;;;;;;26.67;15.48;;;6.00;99.90;;;;;;5009857;28;20145;-72
2022/11/28 10:02:57;;;;;;;23.83;14.32;;;5.90;99.90;;;;;;5013917;28;20540;-73
2022/11/28 10:05:36;;;;;;;23.80;14.60;;;6.00;99.90;;;;;;5022813;28;20524;-73
2022/11/28 10:08:17;;;;;;;27.88;15.50;;;6.00;99.90;;;;;;5023811;28;20049;-71
2022/11/28 10:11:08;;;;;;;22.33;13.93;;;6.10;99.90;;;;;;5024562;28;20042;-74
2022/11/28 10:13:55;;;;;;;24.85;14.70;;;6.10;99.90;;;;;;5017093;28;20559;-73
2022/11/28 10:16:46;;;;;;;24.13;14.83;;;6.10;99.90;;;;;;5025567;28;20071;-74
2022/11/28 10:19:18;;;;;;;25.25;15.15;;;6.20;99.90;;;;;;5005640;28;20048;-71
2022/11/28 10:22:12;;;;;;;26.25;15.23;;;6.20;99.90;;;;;;5014258;28;20038;-73
2022/11/28 10:25:03;;;;;;;25.42;14.95;;;6.30;99.90;;;;;;5015434;28;20823;-73
2022/11/28 10:27:34;;;;;;;24.73;15.25;;;6.40;99.90;;;;;;5000364;28;20088;-71
2022/11/28 10:30:10;;;;;;;30.30;16.02;;;6.50;99.90;;;;;;5003764;28;20439;-71
2022/11/28 10:32:41;;;;;;;22.63;14.90;;;6.50;99.90;;;;;;5018779;28;20049;-73
2022/11/28 10:35:34;;;;;;;27.55;17.25;;;6.60;99.90;;;;;;5026896;28;20137;-73
2022/11/28 10:38:05;;;;;;;27.58;15.27;;;6.60;99.90;;;;;;5014167;28;20096;-76
2022/11/28 10:40:55;;;;;;;26.00;15.20;;;6.60;99.90;;;;;;5009610;28;20045;-73
2022/11/28 10:43:29;;;;;;;27.17;15.50;;;6.70;99.90;;;;;;5015041;28;20069;-73
2022/11/28 10:46:02;;;;;;;27.25;15.68;;;6.70;99.90;;;;;;4999329;28;20068;-73
2022/11/28 10:48:43;;;;;;;24.63;15.30;;;6.70;99.90;;;;;;5012390;28;20069;-74
2022/11/28 10:51:14;;;;;;;26.42;15.00;;;6.70;99.90;;;;;;5016277;28;20049;-75
2022/11/28 10:54:15;;;;;;;24.80;15.32;;;6.70;99.90;;;;;;5002534;28;20472;-74
2022/11/28 10:56:55;;;;;;;28.77;16.90;;;6.70;99.90;;;;;;5021984;28;20051;-75
2022/11/28 11:00:02;;;;;;;26.38;15.35;;;6.60;99.90;;;;;;5020279;28;20041;-73
2022/11/28 11:02:39;;;;;;;26.38;15.93;;;6.60;99.90;;;;;;5027249;28;20064;-73
2022/11/28 11:05:15;;;;;;;27.45;15.63;;;6.50;99.90;;;;;;5010210;28;20507;-73
2022/11/28 11:07:50;;;;;;;27.10;16.10;;;6.60;99.90;;;;;;5013789;28;20129;-74
2022/11/28 11:10:22;;;;;;;23.67;14.98;;;6.70;99.90;;;;;;5011325;28;20112;-73
2022/11/28 11:12:51;;;;;;;27.58;16.20;;;6.80;99.90;;;;;;4998507;28;20100;-74
2022/11/28 11:15:23;;;;;;;23.05;15.00;;;6.90;99.90;;;;;;5029988;28;20537;-73
2022/11/28 11:17:51;;;;;;;23.88;15.32;;;6.80;99.90;;;;;;5031985;28;20506;-71
2022/11/28 11:20:34;;;;;;;27.10;16.02;;;6.70;99.90;;;;;;5009551;28;20065;-72
2022/11/28 11:23:16;;;;;;;25.88;15.95;;;6.80;99.90;;;;;;5017613;28;20129;-74
2022/11/28 11:25:51;;;;;;;23.98;15.48;;;6.80;99.90;;;;;;4995115;28;20038;-75
2022/11/28 11:28:28;;;;;;;27.85;16.10;;;6.90;99.90;;;;;;5031260;28;20030;-74
2022/11/28 11:31:04;;;;;;;28.38;17.35;;;6.90;99.90;;;;;;5018629;28;20030;-74
2022/11/28 11:33:34;;;;;;;28.73;17.90;;;7.00;99.90;;;;;;5021280;28;20519;-73
2022/11/28 11:36:04;;;;;;;26.95;15.65;;;7.10;99.90;;;;;;5019189;28;20408;-74
2022/11/28 11:38:34;;;;;;;25.15;15.18;;;7.30;99.90;;;;;;5020070;28;20500;-74
2022/11/28 11:41:28;;;;;;;23.38;15.13;;;7.40;99.90;;;;;;5019724;28;20049;-74
2022/11/28 11:44:21;;;;;;;25.85;14.88;;;7.70;99.90;;;;;;5004788;28;20970;-73
2022/11/28 11:46:54;;;;;;;25.25;15.05;;;7.80;99.90;;;;;;5008989;28;20468;-75
2022/11/28 11:49:38;;;;;;;24.75;16.30;;;7.90;99.90;;;;;;5011967;28;20133;-73
2022/11/28 11:52:19;;;;;;;29.73;17.20;;;8.10;99.90;;;;;;5028630;28;20515;-75
2022/11/28 11:54:53;;;;;;;26.23;17.23;;;8.00;99.90;;;;;;5032037;28;20074;-75
2022/11/28 11:57:31;;;;;;;27.70;16.83;;;8.00;99.90;;;;;;5019608;28;20072;-74
2022/11/28 12:00:13;;;;;;;28.58;16.70;;;8.10;99.90;;;;;;5011808;28;20049;-74
2022/11/28 12:02:50;;;;;;;28.20;17.35;;;8.10;99.90;;;;;;5022265;28;20044;-75
2022/11/28 12:05:46;;;;;;;26.05;16.35;;;8.00;99.90;;;;;;5012699;28;20217;-73
2022/11/28 12:08:52;;;;;;;26.33;16.65;;;8.00;99.90;;;;;;5012502;28;20140;-73
2022/11/28 12:11:30;;;;;;;27.65;17.38;;;8.20;99.90;;;;;;5032196;28;20437;-73
2022/11/28 12:14:03;;;;;;;28.65;17.08;;;8.30;99.90;;;;;;5013258;28;20389;-74
2022/11/28 12:16:56;;;;;;;30.27;17.38;;;8.20;99.90;;;;;;5028940;28;20045;-75
2022/11/28 12:20:05;;;;;;;27.00;18.00;;;8.10;99.90;;;;;;4999591;28;20045;-73
2022/11/28 12:22:56;;;;;;;26.15;17.15;;;8.10;99.90;;;;;;5007526;28;20068;-72
2022/11/28 12:25:32;;;;;;;26.77;16.48;;;8.10;99.90;;;;;;5008107;28;20077;-74
2022/11/28 12:28:30;;;;;;;25.15;16.77;;;8.20;99.90;;;;;;5010275;28;20212;-72
2022/11/28 12:31:18;;;;;;;27.92;17.50;;;8.10;99.90;;;;;;4999948;28;20539;-72
2022/11/28 12:34:19;;;;;;;26.83;16.92;;;8.10;99.90;;;;;;5002138;28;20042;-73
2022/11/28 12:37:01;;;;;;;29.42;18.20;;;8.20;99.90;;;;;;5005701;28;20675;-73
2022/11/28 12:40:05;;;;;;;25.73;17.10;;;8.20;99.90;;;;;;5005068;28;20049;-73
2022/11/28 12:42:39;;;;;;;28.10;17.05;;;8.20;99.90;;;;;;5025579;28;20499;-73
2022/11/28 12:45:35;;;;;;;34.92;22.55;;;8.00;99.90;;;;;;5009753;28;20042;-73
2022/11/28 12:48:34;;;;;;;25.50;16.38;;;8.00;99.90;;;;;;4943667;29;20053;-74
2022/11/28 12:51:16;;;;;;;24.67;16.50;;;8.00;99.90;;;;;;4950182;29;20058;-74
2022/11/28 12:53:55;;;;;;;26.60;16.63;;;7.90;99.90;;;;;;4947710;28;20284;-75
2022/11/28 12:56:37;;;;;;;30.10;16.67;;;7.90;99.90;;;;;;4949996;29;20051;-75
2022/11/28 12:59:21;;;;;;;25.08;16.17;;;7.80;99.90;;;;;;4952640;28;20449;-75
2022/11/28 13:02:25;;;;;;;29.63;17.40;;;7.80;99.90;;;;;;4958345;28;20046;-73
2022/11/28 13:05:02;;;;;;;28.77;16.25;;;7.70;99.90;;;;;;4936947;28;20548;-75
2022/11/28 13:07:41;;;;;;;25.30;16.73;;;7.80;99.90;;;;;;4946270;28;20050;-74
2022/11/28 13:10:12;;;;;;;25.33;17.10;;;7.70;99.90;;;;;;4948370;28;20537;-75
2022/11/28 13:12:58;;;;;;;27.58;16.92;;;7.70;99.90;;;;;;4938093;28;20134;-75
2022/11/28 13:15:56;;;;;;;26.13;16.88;;;7.70;99.90;;;;;;4952268;28;20046;-75
2022/11/28 13:18:51;;;;;;;29.15;18.25;;;7.70;99.90;;;;;;4936024;28;20058;-72